Terminal Aerodrome Forecast
Issued by NWS

Home | Current Version | Previous Version | Text Only | Print | Product List | Glossary On
Versions: 1 2 3 4 5 6 7 8 9 10 11 12 13 14
000
FTUS45 KRIW 011700
TAFJAC
TAF
KJAC 011723Z 0118/0218 17005KT P6SM BKN250
     FM012200 17007KT P6SM BKN080
     FM020100 18008KT 4SM -SN OVC025
     FM020800 18009KT 1 1/2SM -SN OVC015
      AMD LTD TO CLD VIS AND WIND=

USA.gov is the U.S. government's official web portal to all federal, state and local government web resources and services.